sensor_id;sensor_type;location;lat;lon;timestamp;P1;durP1;ratioP1;P2;durP2;ratioP2
19907;SDS011;10116;53.112;7.356;2023-11-19T00:02:06;1.13;;;1.00;;
19907;SDS011;10116;53.112;7.356;2023-11-19T00:04:33;1.00;;;0.87;;
19907;SDS011;10116;53.112;7.356;2023-11-19T00:07:04;1.20;;;1.17;;
19907;SDS011;10116;53.112;7.356;2023-11-19T00:09:31;0.90;;;0.90;;
19907;SDS011;10116;53.112;7.356;2023-11-19T00:12:02;1.10;;;1.10;;
19907;SDS011;10116;53.112;7.356;2023-11-19T00:14:29;3.17;;;1.10;;
19907;SDS011;10116;53.112;7.356;2023-11-19T00:16:55;0.80;;;0.80;;
19907;SDS011;10116;53.112;7.356;2023-11-19T00:19:20;2.00;;;1.10;;
19907;SDS011;10116;53.112;7.356;2023-11-19T00:21:46;1.00;;;1.00;;
19907;SDS011;10116;53.112;7.356;2023-11-19T00:24:12;1.10;;;0.93;;
19907;SDS011;10116;53.112;7.356;2023-11-19T00:26:38;1.80;;;1.00;;
19907;SDS011;10116;53.112;7.356;2023-11-19T00:29:03;1.67;;;0.90;;
19907;SDS011;10116;53.112;7.356;2023-11-19T00:31:29;1.20;;;1.10;;
19907;SDS011;10116;53.112;7.356;2023-11-19T00:33:55;0.70;;;0.70;;
19907;SDS011;10116;53.112;7.356;2023-11-19T00:36:20;1.30;;;1.10;;
19907;SDS011;10116;53.112;7.356;2023-11-19T00:38:49;1.33;;;0.97;;
19907;SDS011;10116;53.112;7.356;2023-11-19T00:41:14;2.23;;;0.90;;
19907;SDS011;10116;53.112;7.356;2023-11-19T00:43:41;0.93;;;0.90;;
19907;SDS011;10116;53.112;7.356;2023-11-19T00:46:07;2.47;;;0.90;;
19907;SDS011;10116;53.112;7.356;2023-11-19T00:48:35;1.80;;;0.80;;
19907;SDS011;10116;53.112;7.356;2023-11-19T00:51:01;0.90;;;0.90;;
19907;SDS011;10116;53.112;7.356;2023-11-19T00:53:27;1.40;;;1.30;;
19907;SDS011;10116;53.112;7.356;2023-11-19T00:55:53;0.93;;;0.83;;
19907;SDS011;10116;53.112;7.356;2023-11-19T00:58:18;1.07;;;0.80;;
19907;SDS011;10116;53.112;7.356;2023-11-19T01:00:44;1.17;;;0.90;;
19907;SDS011;10116;53.112;7.356;2023-11-19T01:03:10;1.10;;;1.10;;
19907;SDS011;10116;53.112;7.356;2023-11-19T01:05:36;1.53;;;1.00;;
19907;SDS011;10116;53.112;7.356;2023-11-19T01:08:02;0.80;;;0.80;;
19907;SDS011;10116;53.112;7.356;2023-11-19T01:10:29;1.13;;;1.13;;
19907;SDS011;10116;53.112;7.356;2023-11-19T01:12:55;3.80;;;0.90;;
19907;SDS011;10116;53.112;7.356;2023-11-19T01:15:20;1.03;;;0.90;;
19907;SDS011;10116;53.112;7.356;2023-11-19T01:17:46;1.03;;;0.90;;
19907;SDS011;10116;53.112;7.356;2023-11-19T01:20:12;2.00;;;1.20;;
19907;SDS011;10116;53.112;7.356;2023-11-19T01:22:38;1.00;;;1.00;;
19907;SDS011;10116;53.112;7.356;2023-11-19T01:25:05;0.73;;;0.73;;
19907;SDS011;10116;53.112;7.356;2023-11-19T01:27:31;0.97;;;0.87;;
19907;SDS011;10116;53.112;7.356;2023-11-19T01:29:56;1.37;;;0.93;;
19907;SDS011;10116;53.112;7.356;2023-11-19T01:32:22;0.87;;;0.87;;
19907;SDS011;10116;53.112;7.356;2023-11-19T01:34:50;0.87;;;0.87;;
19907;SDS011;10116;53.112;7.356;2023-11-19T01:37:16;0.80;;;0.80;;
19907;SDS011;10116;53.112;7.356;2023-11-19T01:39:45;1.10;;;1.10;;
19907;SDS011;10116;53.112;7.356;2023-11-19T01:42:10;1.40;;;0.90;;
19907;SDS011;10116;53.112;7.356;2023-11-19T01:44:37;1.33;;;1.10;;
19907;SDS011;10116;53.112;7.356;2023-11-19T01:47:03;0.93;;;0.87;;
19907;SDS011;10116;53.112;7.356;2023-11-19T01:49:29;1.00;;;1.00;;
19907;SDS011;10116;53.112;7.356;2023-11-19T01:51:57;0.80;;;0.80;;
19907;SDS011;10116;53.112;7.356;2023-11-19T01:54:23;3.70;;;1.03;;
19907;SDS011;10116;53.112;7.356;2023-11-19T01:56:49;0.90;;;0.90;;
19907;SDS011;10116;53.112;7.356;2023-11-19T01:59:15;1.73;;;1.20;;
19907;SDS011;10116;53.112;7.356;2023-11-19T02:01:41;1.67;;;0.90;;
19907;SDS011;10116;53.112;7.356;2023-11-19T02:04:07;1.03;;;0.90;;
19907;SDS011;10116;53.112;7.356;2023-11-19T02:06:34;1.33;;;0.93;;
19907;SDS011;10116;53.112;7.356;2023-11-19T02:09:02;0.90;;;0.90;;
19907;SDS011;10116;53.112;7.356;2023-11-19T02:11:32;0.97;;;0.97;;
19907;SDS011;10116;53.112;7.356;2023-11-19T02:14:02;1.00;;;1.00;;
19907;SDS011;10116;53.112;7.356;2023-11-19T02:16:30;1.63;;;1.13;;
19907;SDS011;10116;53.112;7.356;2023-11-19T02:18:55;1.27;;;1.00;;
19907;SDS011;10116;53.112;7.356;2023-11-19T02:21:21;2.13;;;1.27;;
19907;SDS011;10116;53.112;7.356;2023-11-19T02:23:47;3.40;;;1.20;;
19907;SDS011;10116;53.112;7.356;2023-11-19T02:28:47;1.40;;;1.07;;
19907;SDS011;10116;53.112;7.356;2023-11-19T02:31:13;1.37;;;1.27;;
19907;SDS011;10116;53.112;7.356;2023-11-19T02:33:39;1.47;;;1.10;;
19907;SDS011;10116;53.112;7.356;2023-11-19T02:36:05;2.10;;;1.10;;
19907;SDS011;10116;53.112;7.356;2023-11-19T02:38:32;41.93;;;2.90;;
19907;SDS011;10116;53.112;7.356;2023-11-19T02:40:58;1.80;;;1.20;;
19907;SDS011;10116;53.112;7.356;2023-11-19T02:43:27;2.00;;;0.93;;
19907;SDS011;10116;53.112;7.356;2023-11-19T02:45:53;3.77;;;1.27;;
19907;SDS011;10116;53.112;7.356;2023-11-19T02:48:20;2.00;;;1.50;;
19907;SDS011;10116;53.112;7.356;2023-11-19T02:50:46;4.60;;;1.20;;
19907;SDS011;10116;53.112;7.356;2023-11-19T02:53:12;7.20;;;1.67;;
19907;SDS011;10116;53.112;7.356;2023-11-19T02:55:38;3.80;;;1.40;;
19907;SDS011;10116;53.112;7.356;2023-11-19T02:58:06;2.87;;;1.13;;
19907;SDS011;10116;53.112;7.356;2023-11-19T03:00:39;2.57;;;1.07;;
19907;SDS011;10116;53.112;7.356;2023-11-19T03:03:12;1.00;;;0.90;;
19907;SDS011;10116;53.112;7.356;2023-11-19T03:05:47;1.90;;;1.20;;
19907;SDS011;10116;53.112;7.356;2023-11-19T03:08:14;4.53;;;1.10;;
19907;SDS011;10116;53.112;7.356;2023-11-19T03:10:43;2.00;;;1.10;;
19907;SDS011;10116;53.112;7.356;2023-11-19T03:13:11;2.90;;;1.30;;
19907;SDS011;10116;53.112;7.356;2023-11-19T03:15:42;1.40;;;1.10;;
19907;SDS011;10116;53.112;7.356;2023-11-19T03:18:08;3.60;;;1.17;;
19907;SDS011;10116;53.112;7.356;2023-11-19T03:20:34;0.90;;;0.90;;
19907;SDS011;10116;53.112;7.356;2023-11-19T03:22:59;2.77;;;1.33;;
19907;SDS011;10116;53.112;7.356;2023-11-19T03:25:26;1.87;;;1.00;;
19907;SDS011;10116;53.112;7.356;2023-11-19T03:27:58;2.00;;;1.30;;
19907;SDS011;10116;53.112;7.356;2023-11-19T03:30:23;2.97;;;1.43;;
19907;SDS011;10116;53.112;7.356;2023-11-19T03:32:49;4.70;;;1.30;;
19907;SDS011;10116;53.112;7.356;2023-11-19T03:35:15;2.60;;;1.17;;
19907;SDS011;10116;53.112;7.356;2023-11-19T03:37:41;2.20;;;1.27;;
19907;SDS011;10116;53.112;7.356;2023-11-19T03:40:06;1.47;;;1.17;;
19907;SDS011;10116;53.112;7.356;2023-11-19T03:42:32;1.40;;;1.30;;
19907;SDS011;10116;53.112;7.356;2023-11-19T03:44:58;2.33;;;1.30;;
19907;SDS011;10116;53.112;7.356;2023-11-19T03:47:24;2.10;;;1.10;;
19907;SDS011;10116;53.112;7.356;2023-11-19T03:49:50;2.30;;;1.20;;
19907;SDS011;10116;53.112;7.356;2023-11-19T03:52:16;2.10;;;1.37;;
19907;SDS011;10116;53.112;7.356;2023-11-19T03:54:42;2.90;;;0.90;;
19907;SDS011;10116;53.112;7.356;2023-11-19T03:57:08;1.13;;;1.03;;
19907;SDS011;10116;53.112;7.356;2023-11-19T03:59:37;2.00;;;1.37;;
19907;SDS011;10116;53.112;7.356;2023-11-19T04:02:03;1.17;;;1.10;;
19907;SDS011;10116;53.112;7.356;2023-11-19T04:04:28;1.57;;;1.23;;
19907;SDS011;10116;53.112;7.356;2023-11-19T04:06:54;2.17;;;1.00;;
19907;SDS011;10116;53.112;7.356;2023-11-19T04:09:20;2.20;;;1.13;;
19907;SDS011;10116;53.112;7.356;2023-11-19T04:11:46;4.20;;;1.30;;
19907;SDS011;10116;53.112;7.356;2023-11-19T04:14:12;3.43;;;1.30;;
19907;SDS011;10116;53.112;7.356;2023-11-19T04:16:39;2.57;;;1.37;;
19907;SDS011;10116;53.112;7.356;2023-11-19T04:19:05;1.53;;;1.10;;
19907;SDS011;10116;53.112;7.356;2023-11-19T04:21:31;1.77;;;1.43;;
19907;SDS011;10116;53.112;7.356;2023-11-19T04:23:57;1.10;;;1.10;;
19907;SDS011;10116;53.112;7.356;2023-11-19T04:26:23;1.33;;;1.23;;
19907;SDS011;10116;53.112;7.356;2023-11-19T04:28:48;1.93;;;1.17;;
19907;SDS011;10116;53.112;7.356;2023-11-19T04:31:14;1.40;;;1.10;;
19907;SDS011;10116;53.112;7.356;2023-11-19T04:33:41;1.50;;;1.40;;
19907;SDS011;10116;53.112;7.356;2023-11-19T04:36:08;2.53;;;1.87;;
19907;SDS011;10116;53.112;7.356;2023-11-19T04:38:34;3.03;;;1.57;;
19907;SDS011;10116;53.112;7.356;2023-11-19T04:41:00;2.20;;;1.03;;
19907;SDS011;10116;53.112;7.356;2023-11-19T04:43:25;3.40;;;1.70;;
19907;SDS011;10116;53.112;7.356;2023-11-19T04:45:51;1.63;;;1.20;;
19907;SDS011;10116;53.112;7.356;2023-11-19T04:48:17;1.63;;;1.27;;
19907;SDS011;10116;53.112;7.356;2023-11-19T04:50:42;2.87;;;1.30;;
19907;SDS011;10116;53.112;7.356;2023-11-19T04:53:08;2.40;;;1.17;;
19907;SDS011;10116;53.112;7.356;2023-11-19T04:55:34;3.20;;;1.37;;
19907;SDS011;10116;53.112;7.356;2023-11-19T04:57:59;1.37;;;1.10;;
19907;SDS011;10116;53.112;7.356;2023-11-19T05:00:25;1.47;;;1.20;;
19907;SDS011;10116;53.112;7.356;2023-11-19T05:02:51;1.73;;;1.30;;
19907;SDS011;10116;53.112;7.356;2023-11-19T05:05:17;3.07;;;1.00;;
19907;SDS011;10116;53.112;7.356;2023-11-19T05:07:42;1.57;;;1.10;;
19907;SDS011;10116;53.112;7.356;2023-11-19T05:10:08;1.93;;;1.40;;
19907;SDS011;10116;53.112;7.356;2023-11-19T05:12:34;2.13;;;1.10;;
19907;SDS011;10116;53.112;7.356;2023-11-19T05:15:00;1.77;;;1.27;;
19907;SDS011;10116;53.112;7.356;2023-11-19T05:17:25;2.80;;;1.53;;
19907;SDS011;10116;53.112;7.356;2023-11-19T05:19:51;1.77;;;1.10;;
19907;SDS011;10116;53.112;7.356;2023-11-19T05:22:17;3.70;;;1.70;;
19907;SDS011;10116;53.112;7.356;2023-11-19T05:24:42;3.70;;;1.37;;
19907;SDS011;10116;53.112;7.356;2023-11-19T05:27:09;1.83;;;1.33;;
19907;SDS011;10116;53.112;7.356;2023-11-19T05:29:36;1.87;;;1.43;;
19907;SDS011;10116;53.112;7.356;2023-11-19T05:32:04;1.17;;;1.07;;
19907;SDS011;10116;53.112;7.356;2023-11-19T05:34:30;2.00;;;1.37;;
19907;SDS011;10116;53.112;7.356;2023-11-19T05:36:56;2.40;;;1.43;;
19907;SDS011;10116;53.112;7.356;2023-11-19T05:39:22;1.70;;;1.50;;
19907;SDS011;10116;53.112;7.356;2023-11-19T05:41:48;2.20;;;1.63;;
19907;SDS011;10116;53.112;7.356;2023-11-19T05:44:14;2.40;;;1.40;;
19907;SDS011;10116;53.112;7.356;2023-11-19T05:46:39;1.93;;;1.63;;
19907;SDS011;10116;53.112;7.356;2023-11-19T05:49:08;4.93;;;2.10;;
19907;SDS011;10116;53.112;7.356;2023-11-19T05:51:40;2.53;;;1.40;;
19907;SDS011;10116;53.112;7.356;2023-11-19T05:54:07;2.67;;;1.50;;
19907;SDS011;10116;53.112;7.356;2023-11-19T05:56:33;2.17;;;1.60;;
19907;SDS011;10116;53.112;7.356;2023-11-19T05:58:59;2.00;;;1.63;;
19907;SDS011;10116;53.112;7.356;2023-11-19T06:01:26;3.33;;;1.70;;
19907;SDS011;10116;53.112;7.356;2023-11-19T06:03:52;2.70;;;1.87;;
19907;SDS011;10116;53.112;7.356;2023-11-19T06:06:18;1.90;;;1.30;;
19907;SDS011;10116;53.112;7.356;2023-11-19T06:08:44;2.70;;;1.47;;
19907;SDS011;10116;53.112;7.356;2023-11-19T06:11:10;2.70;;;1.30;;
19907;SDS011;10116;53.112;7.356;2023-11-19T06:13:43;3.83;;;1.77;;
19907;SDS011;10116;53.112;7.356;2023-11-19T06:16:09;5.27;;;2.10;;
19907;SDS011;10116;53.112;7.356;2023-11-19T06:18:38;2.43;;;1.77;;
19907;SDS011;10116;53.112;7.356;2023-11-19T06:21:04;1.57;;;1.40;;
19907;SDS011;10116;53.112;7.356;2023-11-19T06:23:30;2.20;;;1.70;;
19907;SDS011;10116;53.112;7.356;2023-11-19T06:25:55;2.20;;;1.53;;
19907;SDS011;10116;53.112;7.356;2023-11-19T06:28:21;4.23;;;1.83;;
19907;SDS011;10116;53.112;7.356;2023-11-19T06:30:46;3.77;;;1.80;;
19907;SDS011;10116;53.112;7.356;2023-11-19T06:33:12;2.20;;;1.60;;
19907;SDS011;10116;53.112;7.356;2023-11-19T06:35:39;2.80;;;1.80;;
19907;SDS011;10116;53.112;7.356;2023-11-19T06:38:04;2.13;;;1.70;;
19907;SDS011;10116;53.112;7.356;2023-11-19T06:40:31;2.40;;;1.67;;
19907;SDS011;10116;53.112;7.356;2023-11-19T06:42:57;2.20;;;1.50;;
19907;SDS011;10116;53.112;7.356;2023-11-19T06:45:23;2.53;;;1.77;;
19907;SDS011;10116;53.112;7.356;2023-11-19T06:47:48;3.00;;;1.67;;
19907;SDS011;10116;53.112;7.356;2023-11-19T06:50:14;2.40;;;1.50;;
19907;SDS011;10116;53.112;7.356;2023-11-19T06:52:40;2.50;;;1.63;;
19907;SDS011;10116;53.112;7.356;2023-11-19T06:55:06;2.40;;;1.60;;
19907;SDS011;10116;53.112;7.356;2023-11-19T06:57:32;3.70;;;1.37;;
19907;SDS011;10116;53.112;7.356;2023-11-19T06:59:58;2.00;;;1.60;;
19907;SDS011;10116;53.112;7.356;2023-11-19T07:02:24;2.50;;;1.80;;
19907;SDS011;10116;53.112;7.356;2023-11-19T07:04:50;3.30;;;1.67;;
19907;SDS011;10116;53.112;7.356;2023-11-19T07:07:16;2.87;;;1.60;;
19907;SDS011;10116;53.112;7.356;2023-11-19T07:09:42;2.67;;;1.67;;
19907;SDS011;10116;53.112;7.356;2023-11-19T07:12:08;4.00;;;1.50;;
19907;SDS011;10116;53.112;7.356;2023-11-19T07:14:33;3.80;;;1.67;;
19907;SDS011;10116;53.112;7.356;2023-11-19T07:16:59;1.90;;;1.43;;
19907;SDS011;10116;53.112;7.356;2023-11-19T07:19:25;2.17;;;1.70;;
19907;SDS011;10116;53.112;7.356;2023-11-19T07:21:51;3.67;;;1.67;;
19907;SDS011;10116;53.112;7.356;2023-11-19T07:24:19;1.97;;;1.50;;
19907;SDS011;10116;53.112;7.356;2023-11-19T07:26:45;1.90;;;1.23;;
19907;SDS011;10116;53.112;7.356;2023-11-19T07:29:12;4.13;;;1.73;;
19907;SDS011;10116;53.112;7.356;2023-11-19T07:31:38;2.87;;;1.80;;
19907;SDS011;10116;53.112;7.356;2023-11-19T07:34:04;2.83;;;1.83;;
19907;SDS011;10116;53.112;7.356;2023-11-19T07:36:31;3.70;;;2.17;;
19907;SDS011;10116;53.112;7.356;2023-11-19T07:38:57;2.80;;;1.77;;
19907;SDS011;10116;53.112;7.356;2023-11-19T07:41:23;3.73;;;2.10;;
19907;SDS011;10116;53.112;7.356;2023-11-19T07:43:50;2.30;;;1.60;;
19907;SDS011;10116;53.112;7.356;2023-11-19T07:46:16;2.00;;;1.50;;
19907;SDS011;10116;53.112;7.356;2023-11-19T07:48:44;2.73;;;1.90;;
19907;SDS011;10116;53.112;7.356;2023-11-19T07:51:12;2.80;;;1.70;;
19907;SDS011;10116;53.112;7.356;2023-11-19T07:53:38;2.17;;;1.63;;
19907;SDS011;10116;53.112;7.356;2023-11-19T07:56:04;2.33;;;1.57;;
19907;SDS011;10116;53.112;7.356;2023-11-19T07:58:30;2.53;;;1.60;;
19907;SDS011;10116;53.112;7.356;2023-11-19T08:00:56;5.27;;;1.87;;
19907;SDS011;10116;53.112;7.356;2023-11-19T08:03:21;4.10;;;2.60;;
19907;SDS011;10116;53.112;7.356;2023-11-19T08:05:47;5.20;;;2.50;;
19907;SDS011;10116;53.112;7.356;2023-11-19T08:08:13;5.77;;;2.80;;
19907;SDS011;10116;53.112;7.356;2023-11-19T08:10:39;7.03;;;3.17;;
19907;SDS011;10116;53.112;7.356;2023-11-19T08:13:05;10.30;;;3.40;;
19907;SDS011;10116;53.112;7.356;2023-11-19T08:15:31;9.70;;;3.40;;
19907;SDS011;10116;53.112;7.356;2023-11-19T08:17:57;9.70;;;3.93;;
19907;SDS011;10116;53.112;7.356;2023-11-19T08:20:22;10.20;;;4.10;;
19907;SDS011;10116;53.112;7.356;2023-11-19T08:22:48;11.27;;;4.30;;
19907;SDS011;10116;53.112;7.356;2023-11-19T08:25:14;10.20;;;4.83;;
19907;SDS011;10116;53.112;7.356;2023-11-19T08:27:40;13.87;;;4.87;;
19907;SDS011;10116;53.112;7.356;2023-11-19T08:30:05;9.80;;;4.30;;
19907;SDS011;10116;53.112;7.356;2023-11-19T08:32:32;13.27;;;4.80;;
19907;SDS011;10116;53.112;7.356;2023-11-19T08:34:57;11.27;;;4.00;;
19907;SDS011;10116;53.112;7.356;2023-11-19T08:37:23;13.00;;;5.10;;
19907;SDS011;10116;53.112;7.356;2023-11-19T08:39:49;11.73;;;4.70;;
19907;SDS011;10116;53.112;7.356;2023-11-19T08:42:16;14.03;;;4.87;;
19907;SDS011;10116;53.112;7.356;2023-11-19T08:44:42;16.47;;;4.83;;
19907;SDS011;10116;53.112;7.356;2023-11-19T08:47:09;20.80;;;5.87;;
19907;SDS011;10116;53.112;7.356;2023-11-19T08:49:36;11.00;;;4.70;;
19907;SDS011;10116;53.112;7.356;2023-11-19T08:52:01;16.80;;;5.23;;
19907;SDS011;10116;53.112;7.356;2023-11-19T08:54:27;12.60;;;4.90;;
19907;SDS011;10116;53.112;7.356;2023-11-19T08:56:53;12.57;;;4.37;;
19907;SDS011;10116;53.112;7.356;2023-11-19T08:59:18;9.23;;;4.20;;
19907;SDS011;10116;53.112;7.356;2023-11-19T09:01:44;14.13;;;4.90;;
19907;SDS011;10116;53.112;7.356;2023-11-19T09:04:10;12.87;;;5.10;;
19907;SDS011;10116;53.112;7.356;2023-11-19T09:06:35;14.20;;;4.63;;
19907;SDS011;10116;53.112;7.356;2023-11-19T09:09:01;10.17;;;4.20;;
19907;SDS011;10116;53.112;7.356;2023-11-19T09:11:28;11.10;;;4.27;;
19907;SDS011;10116;53.112;7.356;2023-11-19T09:13:54;21.10;;;5.03;;
19907;SDS011;10116;53.112;7.356;2023-11-19T09:16:20;25.33;;;5.40;;
19907;SDS011;10116;53.112;7.356;2023-11-19T09:18:45;23.90;;;5.00;;
19907;SDS011;10116;53.112;7.356;2023-11-19T09:21:11;30.13;;;5.90;;
19907;SDS011;10116;53.112;7.356;2023-11-19T09:23:37;17.70;;;4.50;;
19907;SDS011;10116;53.112;7.356;2023-11-19T09:26:04;16.47;;;4.90;;
19907;SDS011;10116;53.112;7.356;2023-11-19T09:28:30;14.17;;;4.70;;
19907;SDS011;10116;53.112;7.356;2023-11-19T09:30:56;15.57;;;4.77;;
19907;SDS011;10116;53.112;7.356;2023-11-19T09:33:23;8.87;;;4.00;;
19907;SDS011;10116;53.112;7.356;2023-11-19T09:35:49;13.70;;;4.63;;
19907;SDS011;10116;53.112;7.356;2023-11-19T09:38:15;13.90;;;3.93;;
19907;SDS011;10116;53.112;7.356;2023-11-19T09:40:42;11.00;;;3.80;;
19907;SDS011;10116;53.112;7.356;2023-11-19T09:43:07;14.43;;;4.53;;
19907;SDS011;10116;53.112;7.356;2023-11-19T09:45:39;15.23;;;4.90;;
19907;SDS011;10116;53.112;7.356;2023-11-19T09:48:16;10.00;;;4.60;;
19907;SDS011;10116;53.112;7.356;2023-11-19T09:50:43;12.43;;;3.90;;
19907;SDS011;10116;53.112;7.356;2023-11-19T09:53:11;18.57;;;4.97;;
19907;SDS011;10116;53.112;7.356;2023-11-19T09:55:37;14.43;;;4.73;;
19907;SDS011;10116;53.112;7.356;2023-11-19T09:58:03;13.93;;;4.20;;
19907;SDS011;10116;53.112;7.356;2023-11-19T10:00:29;13.43;;;4.70;;
19907;SDS011;10116;53.112;7.356;2023-11-19T10:02:55;14.47;;;4.30;;
19907;SDS011;10116;53.112;7.356;2023-11-19T10:05:22;15.97;;;5.33;;
19907;SDS011;10116;53.112;7.356;2023-11-19T10:07:49;15.47;;;4.70;;
19907;SDS011;10116;53.112;7.356;2023-11-19T10:10:15;12.17;;;4.30;;
19907;SDS011;10116;53.112;7.356;2023-11-19T10:12:44;11.90;;;5.00;;
19907;SDS011;10116;53.112;7.356;2023-11-19T10:15:16;11.70;;;4.67;;
19907;SDS011;10116;53.112;7.356;2023-11-19T10:17:49;13.67;;;5.40;;
19907;SDS011;10116;53.112;7.356;2023-11-19T10:20:24;14.43;;;5.57;;
19907;SDS011;10116;53.112;7.356;2023-11-19T10:22:53;16.50;;;5.50;;
19907;SDS011;10116;53.112;7.356;2023-11-19T10:25:22;18.07;;;6.30;;
19907;SDS011;10116;53.112;7.356;2023-11-19T10:27:50;20.80;;;6.40;;
19907;SDS011;10116;53.112;7.356;2023-11-19T10:30:37;19.93;;;6.70;;
19907;SDS011;10116;53.112;7.356;2023-11-19T10:38:18;17.13;;;5.90;;
19907;SDS011;10116;53.112;7.356;2023-11-19T10:40:44;20.70;;;6.30;;
19907;SDS011;10116;53.112;7.356;2023-11-19T10:43:10;19.20;;;6.07;;
19907;SDS011;10116;53.112;7.356;2023-11-19T10:45:36;23.50;;;7.20;;
19907;SDS011;10116;53.112;7.356;2023-11-19T10:48:05;17.27;;;6.13;;
19907;SDS011;10116;53.112;7.356;2023-11-19T10:50:35;16.43;;;6.23;;
19907;SDS011;10116;53.112;7.356;2023-11-19T10:53:01;19.37;;;6.70;;
19907;SDS011;10116;53.112;7.356;2023-11-19T10:55:32;15.47;;;6.00;;
19907;SDS011;10116;53.112;7.356;2023-11-19T10:58:03;19.27;;;6.70;;
19907;SDS011;10116;53.112;7.356;2023-11-19T11:00:37;24.57;;;7.27;;
19907;SDS011;10116;53.112;7.356;2023-11-19T11:03:17;17.23;;;6.50;;
19907;SDS011;10116;53.112;7.356;2023-11-19T11:05:47;16.03;;;5.93;;
19907;SDS011;10116;53.112;7.356;2023-11-19T11:08:14;16.30;;;6.77;;
19907;SDS011;10116;53.112;7.356;2023-11-19T11:10:42;14.73;;;6.50;;
19907;SDS011;10116;53.112;7.356;2023-11-19T11:13:09;17.50;;;6.90;;
19907;SDS011;10116;53.112;7.356;2023-11-19T11:15:37;18.37;;;6.30;;
19907;SDS011;10116;53.112;7.356;2023-11-19T11:18:03;16.53;;;6.70;;
19907;SDS011;10116;53.112;7.356;2023-11-19T11:20:33;12.00;;;5.53;;
19907;SDS011;10116;53.112;7.356;2023-11-19T11:34:53;19.80;;;7.57;;
19907;SDS011;10116;53.112;7.356;2023-11-19T11:39:51;14.33;;;5.23;;
19907;SDS011;10116;53.112;7.356;2023-11-19T11:50:17;13.00;;;5.33;;
19907;SDS011;10116;53.112;7.356;2023-11-19T11:57:56;13.60;;;5.63;;
19907;SDS011;10116;53.112;7.356;2023-11-19T12:00:22;12.63;;;6.10;;
19907;SDS011;10116;53.112;7.356;2023-11-19T12:03:05;23.87;;;6.80;;
19907;SDS011;10116;53.112;7.356;2023-11-19T12:05:32;12.70;;;4.90;;
19907;SDS011;10116;53.112;7.356;2023-11-19T12:08:03;10.07;;;4.17;;
19907;SDS011;10116;53.112;7.356;2023-11-19T12:10:32;12.70;;;5.27;;
19907;SDS011;10116;53.112;7.356;2023-11-19T12:13:06;9.73;;;4.20;;
19907;SDS011;10116;53.112;7.356;2023-11-19T12:18:22;8.70;;;4.20;;
19907;SDS011;10116;53.112;7.356;2023-11-19T12:20:52;14.50;;;4.80;;
19907;SDS011;10116;53.112;7.356;2023-11-19T12:23:18;10.23;;;4.63;;
19907;SDS011;10116;53.112;7.356;2023-11-19T12:25:43;9.17;;;3.93;;
19907;SDS011;10116;53.112;7.356;2023-11-19T12:28:14;11.93;;;4.50;;
19907;SDS011;10116;53.112;7.356;2023-11-19T12:30:42;10.23;;;4.50;;
19907;SDS011;10116;53.112;7.356;2023-11-19T12:33:09;14.50;;;4.20;;
19907;SDS011;10116;53.112;7.356;2023-11-19T12:35:41;11.10;;;3.93;;
19907;SDS011;10116;53.112;7.356;2023-11-19T12:38:08;8.77;;;4.50;;
19907;SDS011;10116;53.112;7.356;2023-11-19T12:40:46;10.00;;;4.43;;
19907;SDS011;10116;53.112;7.356;2023-11-19T12:43:26;11.53;;;4.60;;
19907;SDS011;10116;53.112;7.356;2023-11-19T12:45:52;11.60;;;4.43;;
19907;SDS011;10116;53.112;7.356;2023-11-19T12:48:18;9.97;;;3.83;;
19907;SDS011;10116;53.112;7.356;2023-11-19T12:50:56;12.70;;;4.37;;
19907;SDS011;10116;53.112;7.356;2023-11-19T12:53:23;9.00;;;4.30;;
19907;SDS011;10116;53.112;7.356;2023-11-19T12:55:50;11.83;;;4.80;;
19907;SDS011;10116;53.112;7.356;2023-11-19T12:58:32;12.43;;;4.97;;
19907;SDS011;10116;53.112;7.356;2023-11-19T13:01:05;9.43;;;4.63;;
19907;SDS011;10116;53.112;7.356;2023-11-19T13:03:32;9.83;;;4.67;;
19907;SDS011;10116;53.112;7.356;2023-11-19T13:06:03;10.47;;;4.47;;
19907;SDS011;10116;53.112;7.356;2023-11-19T13:08:43;12.37;;;4.47;;
19907;SDS011;10116;53.112;7.356;2023-11-19T13:11:10;10.70;;;4.13;;
19907;SDS011;10116;53.112;7.356;2023-11-19T13:13:56;13.70;;;5.17;;
19907;SDS011;10116;53.112;7.356;2023-11-19T13:16:24;13.10;;;4.90;;
19907;SDS011;10116;53.112;7.356;2023-11-19T13:18:50;14.67;;;5.30;;
19907;SDS011;10116;53.112;7.356;2023-11-19T13:21:16;16.73;;;4.90;;
19907;SDS011;10116;53.112;7.356;2023-11-19T13:23:42;12.40;;;4.57;;
19907;SDS011;10116;53.112;7.356;2023-11-19T13:26:08;13.40;;;5.43;;
19907;SDS011;10116;53.112;7.356;2023-11-19T13:28:34;11.13;;;4.90;;
19907;SDS011;10116;53.112;7.356;2023-11-19T13:31:00;11.63;;;4.90;;
19907;SDS011;10116;53.112;7.356;2023-11-19T13:33:26;11.60;;;4.57;;
19907;SDS011;10116;53.112;7.356;2023-11-19T13:35:51;14.60;;;5.40;;
19907;SDS011;10116;53.112;7.356;2023-11-19T13:38:18;14.40;;;5.30;;
19907;SDS011;10116;53.112;7.356;2023-11-19T13:40:43;11.40;;;4.90;;
19907;SDS011;10116;53.112;7.356;2023-11-19T13:43:09;16.10;;;5.20;;
19907;SDS011;10116;53.112;7.356;2023-11-19T13:45:34;11.60;;;4.23;;
19907;SDS011;10116;53.112;7.356;2023-11-19T13:48:00;12.67;;;4.73;;
19907;SDS011;10116;53.112;7.356;2023-11-19T13:50:26;12.17;;;4.57;;
19907;SDS011;10116;53.112;7.356;2023-11-19T13:52:53;14.00;;;5.07;;
19907;SDS011;10116;53.112;7.356;2023-11-19T13:55:19;15.33;;;5.30;;
19907;SDS011;10116;53.112;7.356;2023-11-19T13:57:44;19.13;;;5.13;;
19907;SDS011;10116;53.112;7.356;2023-11-19T14:00:11;11.83;;;4.67;;
19907;SDS011;10116;53.112;7.356;2023-11-19T14:02:41;9.60;;;4.30;;
19907;SDS011;10116;53.112;7.356;2023-11-19T14:05:08;12.33;;;5.73;;
19907;SDS011;10116;53.112;7.356;2023-11-19T14:07:35;13.33;;;5.00;;
19907;SDS011;10116;53.112;7.356;2023-11-19T14:10:01;13.37;;;4.60;;
19907;SDS011;10116;53.112;7.356;2023-11-19T14:12:28;17.17;;;4.70;;
19907;SDS011;10116;53.112;7.356;2023-11-19T14:14:53;12.27;;;5.30;;
19907;SDS011;10116;53.112;7.356;2023-11-19T14:17:19;11.53;;;4.20;;
19907;SDS011;10116;53.112;7.356;2023-11-19T14:19:45;10.80;;;4.83;;
19907;SDS011;10116;53.112;7.356;2023-11-19T14:22:11;14.30;;;5.00;;
19907;SDS011;10116;53.112;7.356;2023-11-19T14:24:37;10.93;;;4.67;;
19907;SDS011;10116;53.112;7.356;2023-11-19T14:27:02;13.30;;;5.00;;
19907;SDS011;10116;53.112;7.356;2023-11-19T14:29:28;14.13;;;4.60;;
19907;SDS011;10116;53.112;7.356;2023-11-19T14:31:57;11.60;;;4.83;;
19907;SDS011;10116;53.112;7.356;2023-11-19T14:34:23;13.90;;;5.50;;
19907;SDS011;10116;53.112;7.356;2023-11-19T14:36:51;9.10;;;4.10;;
19907;SDS011;10116;53.112;7.356;2023-11-19T14:39:17;9.97;;;4.10;;
19907;SDS011;10116;53.112;7.356;2023-11-19T14:41:42;14.57;;;5.03;;
19907;SDS011;10116;53.112;7.356;2023-11-19T14:44:09;12.53;;;4.53;;
19907;SDS011;10116;53.112;7.356;2023-11-19T14:46:35;11.33;;;4.10;;
19907;SDS011;10116;53.112;7.356;2023-11-19T14:49:01;13.00;;;5.00;;
19907;SDS011;10116;53.112;7.356;2023-11-19T14:51:26;11.03;;;4.60;;
19907;SDS011;10116;53.112;7.356;2023-11-19T14:53:52;12.67;;;4.67;;
19907;SDS011;10116;53.112;7.356;2023-11-19T14:56:18;12.53;;;3.67;;
19907;SDS011;10116;53.112;7.356;2023-11-19T14:58:43;11.07;;;4.80;;
19907;SDS011;10116;53.112;7.356;2023-11-19T15:01:13;10.40;;;4.20;;
19907;SDS011;10116;53.112;7.356;2023-11-19T15:03:38;14.30;;;5.17;;
19907;SDS011;10116;53.112;7.356;2023-11-19T15:06:04;12.33;;;4.87;;
19907;SDS011;10116;53.112;7.356;2023-11-19T15:08:31;14.13;;;5.43;;
19907;SDS011;10116;53.112;7.356;2023-11-19T15:10:57;10.70;;;4.73;;
19907;SDS011;10116;53.112;7.356;2023-11-19T15:13:23;10.67;;;4.23;;
19907;SDS011;10116;53.112;7.356;2023-11-19T15:15:49;8.83;;;4.70;;
19907;SDS011;10116;53.112;7.356;2023-11-19T15:18:17;11.67;;;5.40;;
19907;SDS011;10116;53.112;7.356;2023-11-19T15:20:44;10.07;;;4.20;;